Terminal Aerodrome Forecast
Issued by NWS

Home | Current Version | Previous Version | Text Only | Print | Product List | Glossary On
Versions: 1 2 3 4 5 6 7 8 9 10 11 12 13 14 15 16
000
FTUS43 KGRR 251120
TAFBTL
TAF
KBTL 251120Z 2512/2612 19010G16KT P6SM -SHRA BKN050
     FM251330 20012G21KT P6SM -SHRA BKN035
     FM251700 22017G26KT P6SM VCTS BKN035CB
     FM260000 20011KT P6SM SCT040 SCT250
     FM260900 20009KT P6SM OVC015=

USA.gov is the U.S. government's official web portal to all federal, state and local government web resources and services.